sensor_id;sensor_type;location;lat;lon;timestamp;temperature;humidity
18175;DHT22;9212;50.894;16.714;2022-09-09T00:01:53;13.60;99.90
18175;DHT22;9212;50.894;16.714;2022-09-09T00:04:26;13.70;99.90
18175;DHT22;9212;50.894;16.714;2022-09-09T00:07:01;13.90;99.90
18175;DHT22;9212;50.894;16.714;2022-09-09T00:09:32;14.00;99.90
18175;DHT22;9212;50.894;16.714;2022-09-09T00:12:11;14.10;99.90
18175;DHT22;9212;50.894;16.714;2022-09-09T00:14:46;14.20;99.90
18175;DHT22;9212;50.894;16.714;2022-09-09T00:17:26;14.20;99.90
18175;DHT22;9212;50.894;16.714;2022-09-09T00:20:03;14.20;99.90
18175;DHT22;9212;50.894;16.714;2022-09-09T00:22:38;14.40;99.90
18175;DHT22;9212;50.894;16.714;2022-09-09T00:25:11;14.30;99.90
18175;DHT22;9212;50.894;16.714;2022-09-09T00:27:43;14.30;99.90
18175;DHT22;9212;50.894;16.714;2022-09-09T00:30:16;14.50;99.90
18175;DHT22;9212;50.894;16.714;2022-09-09T00:32:45;14.30;99.90
18175;DHT22;9212;50.894;16.714;2022-09-09T00:35:17;14.20;99.90
18175;DHT22;9212;50.894;16.714;2022-09-09T00:37:46;14.20;99.90
18175;DHT22;9212;50.894;16.714;2022-09-09T00:40:21;14.40;99.90
18175;DHT22;9212;50.894;16.714;2022-09-09T00:42:58;14.30;99.90
18175;DHT22;9212;50.894;16.714;2022-09-09T00:45:43;14.40;99.90
18175;DHT22;9212;50.894;16.714;2022-09-09T00:48:12;14.50;99.90
18175;DHT22;9212;50.894;16.714;2022-09-09T00:50:48;14.40;99.90
18175;DHT22;9212;50.894;16.714;2022-09-09T00:53:27;14.20;99.90
18175;DHT22;9212;50.894;16.714;2022-09-09T00:56:05;14.10;99.90
18175;DHT22;9212;50.894;16.714;2022-09-09T00:58:37;14.30;99.90
18175;DHT22;9212;50.894;16.714;2022-09-09T01:01:07;14.20;99.90
18175;DHT22;9212;50.894;16.714;2022-09-09T01:03:37;14.10;99.90
18175;DHT22;9212;50.894;16.714;2022-09-09T01:06:16;14.10;99.90
18175;DHT22;9212;50.894;16.714;2022-09-09T01:09:08;14.40;99.90
18175;DHT22;9212;50.894;16.714;2022-09-09T01:11:43;14.40;99.90
18175;DHT22;9212;50.894;16.714;2022-09-09T01:14:27;14.50;99.90
18175;DHT22;9212;50.894;16.714;2022-09-09T01:16:59;14.40;99.90
18175;DHT22;9212;50.894;16.714;2022-09-09T01:19:40;14.60;99.90
18175;DHT22;9212;50.894;16.714;2022-09-09T01:22:18;14.60;99.90
18175;DHT22;9212;50.894;16.714;2022-09-09T01:25:05;14.30;99.90
18175;DHT22;9212;50.894;16.714;2022-09-09T01:27:38;14.30;99.90
18175;DHT22;9212;50.894;16.714;2022-09-09T01:30:09;14.80;99.90
18175;DHT22;9212;50.894;16.714;2022-09-09T01:32:42;14.30;99.90
18175;DHT22;9212;50.894;16.714;2022-09-09T01:35:12;14.50;99.90
18175;DHT22;9212;50.894;16.714;2022-09-09T01:37:41;14.60;99.90
18175;DHT22;9212;50.894;16.714;2022-09-09T01:40:08;14.50;99.90
18175;DHT22;9212;50.894;16.714;2022-09-09T01:42:36;14.40;99.90
18175;DHT22;9212;50.894;16.714;2022-09-09T01:45:05;14.40;99.90
18175;DHT22;9212;50.894;16.714;2022-09-09T01:47:32;14.40;99.90
18175;DHT22;9212;50.894;16.714;2022-09-09T01:52:26;13.90;99.90
18175;DHT22;9212;50.894;16.714;2022-09-09T01:54:53;14.30;99.90
18175;DHT22;9212;50.894;16.714;2022-09-09T01:57:25;14.40;99.90
18175;DHT22;9212;50.894;16.714;2022-09-09T02:00:02;14.40;99.90
18175;DHT22;9212;50.894;16.714;2022-09-09T02:02:36;14.30;99.90
18175;DHT22;9212;50.894;16.714;2022-09-09T02:05:15;14.30;99.90
18175;DHT22;9212;50.894;16.714;2022-09-09T02:07:47;14.30;99.90
18175;DHT22;9212;50.894;16.714;2022-09-09T02:10:19;14.20;99.90
18175;DHT22;9212;50.894;16.714;2022-09-09T02:12:49;14.20;99.90
18175;DHT22;9212;50.894;16.714;2022-09-09T02:15:23;14.10;99.90
18175;DHT22;9212;50.894;16.714;2022-09-09T02:17:52;14.20;99.90
18175;DHT22;9212;50.894;16.714;2022-09-09T02:20:21;14.40;99.90
18175;DHT22;9212;50.894;16.714;2022-09-09T02:22:50;14.70;99.90
18175;DHT22;9212;50.894;16.714;2022-09-09T02:25:22;14.10;99.90
18175;DHT22;9212;50.894;16.714;2022-09-09T02:27:50;13.70;99.90
18175;DHT22;9212;50.894;16.714;2022-09-09T02:30:18;13.90;99.90
18175;DHT22;9212;50.894;16.714;2022-09-09T02:32:47;13.70;99.90
18175;DHT22;9212;50.894;16.714;2022-09-09T02:35:20;13.80;99.90
18175;DHT22;9212;50.894;16.714;2022-09-09T02:37:49;13.90;99.90
18175;DHT22;9212;50.894;16.714;2022-09-09T02:40:16;14.00;99.90
18175;DHT22;9212;50.894;16.714;2022-09-09T02:42:45;14.00;99.90
18175;DHT22;9212;50.894;16.714;2022-09-09T02:45:14;14.20;99.90
18175;DHT22;9212;50.894;16.714;2022-09-09T02:47:47;14.30;99.90
18175;DHT22;9212;50.894;16.714;2022-09-09T02:50:22;13.80;99.90
18175;DHT22;9212;50.894;16.714;2022-09-09T02:53:00;14.20;99.90
18175;DHT22;9212;50.894;16.714;2022-09-09T02:55:39;14.20;99.90
18175;DHT22;9212;50.894;16.714;2022-09-09T02:58:09;14.20;99.90
18175;DHT22;9212;50.894;16.714;2022-09-09T03:00:38;13.70;99.90
18175;DHT22;9212;50.894;16.714;2022-09-09T03:03:06;13.60;99.90
18175;DHT22;9212;50.894;16.714;2022-09-09T03:05:35;13.60;99.90
18175;DHT22;9212;50.894;16.714;2022-09-09T03:08:03;13.50;99.90
18175;DHT22;9212;50.894;16.714;2022-09-09T03:10:31;13.50;99.90
18175;DHT22;9212;50.894;16.714;2022-09-09T03:12:58;13.40;99.90
18175;DHT22;9212;50.894;16.714;2022-09-09T03:15:25;13.40;99.90
18175;DHT22;9212;50.894;16.714;2022-09-09T03:22:53;13.10;99.90
18175;DHT22;9212;50.894;16.714;2022-09-09T03:25:20;13.00;99.90
18175;DHT22;9212;50.894;16.714;2022-09-09T03:27:49;13.00;99.90
18175;DHT22;9212;50.894;16.714;2022-09-09T03:30:20;13.10;99.90
18175;DHT22;9212;50.894;16.714;2022-09-09T03:32:46;13.10;99.90
18175;DHT22;9212;50.894;16.714;2022-09-09T03:37:41;12.40;99.90
18175;DHT22;9212;50.894;16.714;2022-09-09T03:40:10;12.80;99.90
18175;DHT22;9212;50.894;16.714;2022-09-09T03:42:38;12.80;99.90
18175;DHT22;9212;50.894;16.714;2022-09-09T03:45:07;12.80;99.90
18175;DHT22;9212;50.894;16.714;2022-09-09T03:47:36;12.70;99.90
18175;DHT22;9212;50.894;16.714;2022-09-09T03:52:34;12.20;99.90
18175;DHT22;9212;50.894;16.714;2022-09-09T03:55:01;12.50;99.90
18175;DHT22;9212;50.894;16.714;2022-09-09T03:57:29;12.40;99.90
18175;DHT22;9212;50.894;16.714;2022-09-09T03:59:57;12.50;99.90
18175;DHT22;9212;50.894;16.714;2022-09-09T04:02:26;12.50;99.90
18175;DHT22;9212;50.894;16.714;2022-09-09T04:04:53;12.50;99.90
18175;DHT22;9212;50.894;16.714;2022-09-09T04:07:20;12.50;99.90
18175;DHT22;9212;50.894;16.714;2022-09-09T04:12:15;13.80;99.90
18175;DHT22;9212;50.894;16.714;2022-09-09T04:14:44;12.30;99.90
18175;DHT22;9212;50.894;16.714;2022-09-09T04:17:11;12.40;99.90
18175;DHT22;9212;50.894;16.714;2022-09-09T04:19:38;12.30;99.90
18175;DHT22;9212;50.894;16.714;2022-09-09T04:22:05;12.40;99.90
18175;DHT22;9212;50.894;16.714;2022-09-09T04:24:32;12.30;99.90
18175;DHT22;9212;50.894;16.714;2022-09-09T04:27:00;12.30;99.90
18175;DHT22;9212;50.894;16.714;2022-09-09T04:29:27;11.80;99.90
18175;DHT22;9212;50.894;16.714;2022-09-09T04:31:56;12.20;99.90
18175;DHT22;9212;50.894;16.714;2022-09-09T04:34:22;12.40;99.90
18175;DHT22;9212;50.894;16.714;2022-09-09T04:39:18;13.20;99.90
18175;DHT22;9212;50.894;16.714;2022-09-09T04:44:12;12.20;99.90
18175;DHT22;9212;50.894;16.714;2022-09-09T04:46:39;12.30;99.90
18175;DHT22;9212;50.894;16.714;2022-09-09T04:49:08;12.30;99.90
18175;DHT22;9212;50.894;16.714;2022-09-09T04:51:35;12.30;99.90
18175;DHT22;9212;50.894;16.714;2022-09-09T04:56:29;12.30;99.90
18175;DHT22;9212;50.894;16.714;2022-09-09T04:58:56;12.30;99.90
18175;DHT22;9212;50.894;16.714;2022-09-09T05:01:23;12.50;99.90
18175;DHT22;9212;50.894;16.714;2022-09-09T05:03:51;12.50;99.90
18175;DHT22;9212;50.894;16.714;2022-09-09T05:06:21;12.60;99.90
18175;DHT22;9212;50.894;16.714;2022-09-09T05:11:17;12.50;99.90
18175;DHT22;9212;50.894;16.714;2022-09-09T05:13:45;12.50;99.90
18175;DHT22;9212;50.894;16.714;2022-09-09T05:16:13;12.70;99.90
18175;DHT22;9212;50.894;16.714;2022-09-09T05:18:40;12.60;99.90
18175;DHT22;9212;50.894;16.714;2022-09-09T05:21:08;12.80;99.90
18175;DHT22;9212;50.894;16.714;2022-09-09T05:23:37;12.80;99.90
18175;DHT22;9212;50.894;16.714;2022-09-09T05:26:05;13.90;99.90
18175;DHT22;9212;50.894;16.714;2022-09-09T05:28:34;14.10;99.90
18175;DHT22;9212;50.894;16.714;2022-09-09T05:31:02;20.80;99.90
18175;DHT22;9212;50.894;16.714;2022-09-09T05:33:31;20.90;99.90
18175;DHT22;9212;50.894;16.714;2022-09-09T05:35:59;23.00;99.90
18175;DHT22;9212;50.894;16.714;2022-09-09T05:38:27;24.60;99.90
18175;DHT22;9212;50.894;16.714;2022-09-09T05:40:55;25.50;99.90
18175;DHT22;9212;50.894;16.714;2022-09-09T05:43:23;26.40;99.90
18175;DHT22;9212;50.894;16.714;2022-09-09T05:45:59;27.10;99.90
18175;DHT22;9212;50.894;16.714;2022-09-09T05:48:28;27.00;99.90
18175;DHT22;9212;50.894;16.714;2022-09-09T05:50:57;27.20;99.90
18175;DHT22;9212;50.894;16.714;2022-09-09T05:53:24;28.00;99.90
18175;DHT22;9212;50.894;16.714;2022-09-09T05:55:57;28.90;99.90
18175;DHT22;9212;50.894;16.714;2022-09-09T05:58:24;29.20;99.90
18175;DHT22;9212;50.894;16.714;2022-09-09T06:00:51;29.50;99.90
18175;DHT22;9212;50.894;16.714;2022-09-09T06:03:18;30.00;99.90
18175;DHT22;9212;50.894;16.714;2022-09-09T06:05:57;31.00;99.90
18175;DHT22;9212;50.894;16.714;2022-09-09T06:08:24;30.60;99.90
18175;DHT22;9212;50.894;16.714;2022-09-09T06:10:51;31.20;99.90
18175;DHT22;9212;50.894;16.714;2022-09-09T06:13:20;31.80;99.90
18175;DHT22;9212;50.894;16.714;2022-09-09T06:15:50;32.10;99.90
18175;DHT22;9212;50.894;16.714;2022-09-09T06:18:18;32.60;99.90
18175;DHT22;9212;50.894;16.714;2022-09-09T06:20:54;32.70;99.90
18175;DHT22;9212;50.894;16.714;2022-09-09T06:23:22;33.00;99.90
18175;DHT22;9212;50.894;16.714;2022-09-09T06:25:52;32.00;99.90
18175;DHT22;9212;50.894;16.714;2022-09-09T06:28:28;28.60;99.90
18175;DHT22;9212;50.894;16.714;2022-09-09T06:30:57;26.60;99.90
18175;DHT22;9212;50.894;16.714;2022-09-09T06:33:25;26.00;99.90
18175;DHT22;9212;50.894;16.714;2022-09-09T06:35:54;26.60;99.90
18175;DHT22;9212;50.894;16.714;2022-09-09T06:38:22;25.40;99.90
18175;DHT22;9212;50.894;16.714;2022-09-09T06:40:52;24.50;99.90
18175;DHT22;9212;50.894;16.714;2022-09-09T06:43:21;24.60;99.90
18175;DHT22;9212;50.894;16.714;2022-09-09T06:45:59;26.90;99.90
18175;DHT22;9212;50.894;16.714;2022-09-09T06:48:27;30.00;99.90
18175;DHT22;9212;50.894;16.714;2022-09-09T06:51:01;32.00;99.90
18175;DHT22;9212;50.894;16.714;2022-09-09T06:53:28;32.50;99.90
18175;DHT22;9212;50.894;16.714;2022-09-09T06:55:55;32.90;99.90
18175;DHT22;9212;50.894;16.714;2022-09-09T06:58:22;32.50;98.80
18175;DHT22;9212;50.894;16.714;2022-09-09T07:00:49;32.60;99.90
18175;DHT22;9212;50.894;16.714;2022-09-09T07:03:17;32.60;99.90
18175;DHT22;9212;50.894;16.714;2022-09-09T07:05:53;32.90;99.90
18175;DHT22;9212;50.894;16.714;2022-09-09T07:08:21;32.10;99.20
18175;DHT22;9212;50.894;16.714;2022-09-09T07:10:48;32.40;99.90
18175;DHT22;9212;50.894;16.714;2022-09-09T07:13:17;32.10;99.90
18175;DHT22;9212;50.894;16.714;2022-09-09T07:15:46;32.50;99.90
18175;DHT22;9212;50.894;16.714;2022-09-09T07:18:13;32.60;96.80
18175;DHT22;9212;50.894;16.714;2022-09-09T07:20:41;31.10;99.90
18175;DHT22;9212;50.894;16.714;2022-09-09T07:23:08;30.30;99.90
18175;DHT22;9212;50.894;16.714;2022-09-09T07:25:35;30.40;99.90
18175;DHT22;9212;50.894;16.714;2022-09-09T07:28:02;29.50;99.90
18175;DHT22;9212;50.894;16.714;2022-09-09T07:30:29;29.10;99.90
18175;DHT22;9212;50.894;16.714;2022-09-09T07:32:56;28.20;99.90
18175;DHT22;9212;50.894;16.714;2022-09-09T07:35:25;28.50;99.90
18175;DHT22;9212;50.894;16.714;2022-09-09T07:37:53;25.80;99.90
18175;DHT22;9212;50.894;16.714;2022-09-09T07:40:20;25.70;99.90
18175;DHT22;9212;50.894;16.714;2022-09-09T07:42:48;25.50;99.90
18175;DHT22;9212;50.894;16.714;2022-09-09T07:45:15;25.50;99.90
18175;DHT22;9212;50.894;16.714;2022-09-09T07:47:42;25.40;99.90
18175;DHT22;9212;50.894;16.714;2022-09-09T07:50:09;27.00;99.90
18175;DHT22;9212;50.894;16.714;2022-09-09T07:52:37;28.20;99.90
18175;DHT22;9212;50.894;16.714;2022-09-09T07:55:06;28.70;99.90
18175;DHT22;9212;50.894;16.714;2022-09-09T07:57:33;29.10;99.50
18175;DHT22;9212;50.894;16.714;2022-09-09T08:00:00;28.50;94.50
18175;DHT22;9212;50.894;16.714;2022-09-09T08:02:27;27.30;99.90
18175;DHT22;9212;50.894;16.714;2022-09-09T08:04:54;27.30;99.90
18175;DHT22;9212;50.894;16.714;2022-09-09T08:07:22;26.60;99.90
18175;DHT22;9212;50.894;16.714;2022-09-09T08:09:50;26.10;99.90
18175;DHT22;9212;50.894;16.714;2022-09-09T08:12:18;25.20;99.90
18175;DHT22;9212;50.894;16.714;2022-09-09T08:14:45;24.70;99.90
18175;DHT22;9212;50.894;16.714;2022-09-09T08:17:12;24.30;99.90
18175;DHT22;9212;50.894;16.714;2022-09-09T08:19:39;23.70;99.90
18175;DHT22;9212;50.894;16.714;2022-09-09T08:22:06;24.10;99.90
18175;DHT22;9212;50.894;16.714;2022-09-09T08:24:34;24.60;99.90
18175;DHT22;9212;50.894;16.714;2022-09-09T08:27:01;24.70;99.90
18175;DHT22;9212;50.894;16.714;2022-09-09T08:29:29;24.80;99.90
18175;DHT22;9212;50.894;16.714;2022-09-09T08:31:57;24.10;99.90
18175;DHT22;9212;50.894;16.714;2022-09-09T08:34:25;24.10;99.90
18175;DHT22;9212;50.894;16.714;2022-09-09T08:36:53;24.40;99.90
18175;DHT22;9212;50.894;16.714;2022-09-09T08:39:21;24.30;99.90
18175;DHT22;9212;50.894;16.714;2022-09-09T08:42:12;24.10;99.90
18175;DHT22;9212;50.894;16.714;2022-09-09T08:45:00;24.20;99.90
18175;DHT22;9212;50.894;16.714;2022-09-09T08:47:36;25.10;99.90
18175;DHT22;9212;50.894;16.714;2022-09-09T08:50:18;25.30;99.90
18175;DHT22;9212;50.894;16.714;2022-09-09T08:52:53;25.80;99.90
18175;DHT22;9212;50.894;16.714;2022-09-09T08:55:26;25.50;99.90
18175;DHT22;9212;50.894;16.714;2022-09-09T08:57:56;25.30;99.90
18175;DHT22;9212;50.894;16.714;2022-09-09T09:00:32;25.20;99.90
18175;DHT22;9212;50.894;16.714;2022-09-09T09:03:09;25.30;99.90
18175;DHT22;9212;50.894;16.714;2022-09-09T09:05:46;24.90;99.90
18175;DHT22;9212;50.894;16.714;2022-09-09T09:08:23;25.30;99.90
18175;DHT22;9212;50.894;16.714;2022-09-09T09:10:54;25.30;99.90
18175;DHT22;9212;50.894;16.714;2022-09-09T09:13:30;25.50;99.90
18175;DHT22;9212;50.894;16.714;2022-09-09T09:16:06;25.50;99.90
18175;DHT22;9212;50.894;16.714;2022-09-09T09:18:38;25.80;99.90
18175;DHT22;9212;50.894;16.714;2022-09-09T09:21:10;25.40;99.90
18175;DHT22;9212;50.894;16.714;2022-09-09T09:23:44;25.40;99.90
18175;DHT22;9212;50.894;16.714;2022-09-09T09:26:12;25.40;99.90
18175;DHT22;9212;50.894;16.714;2022-09-09T09:28:39;26.10;99.90
18175;DHT22;9212;50.894;16.714;2022-09-09T09:31:10;25.90;99.90
18175;DHT22;9212;50.894;16.714;2022-09-09T09:33:44;25.80;99.90
18175;DHT22;9212;50.894;16.714;2022-09-09T09:36:14;26.30;99.90
18175;DHT22;9212;50.894;16.714;2022-09-09T09:38:52;26.20;99.90
18175;DHT22;9212;50.894;16.714;2022-09-09T09:41:30;26.00;99.90
18175;DHT22;9212;50.894;16.714;2022-09-09T09:43:57;26.50;99.90
18175;DHT22;9212;50.894;16.714;2022-09-09T09:46:26;26.90;99.90
18175;DHT22;9212;50.894;16.714;2022-09-09T09:49:00;26.70;99.90
18175;DHT22;9212;50.894;16.714;2022-09-09T09:51:29;26.40;99.90
18175;DHT22;9212;50.894;16.714;2022-09-09T09:54:09;25.90;99.90
18175;DHT22;9212;50.894;16.714;2022-09-09T09:56:41;25.70;99.90
18175;DHT22;9212;50.894;16.714;2022-09-09T09:59:20;25.80;99.90
18175;DHT22;9212;50.894;16.714;2022-09-09T10:01:49;25.20;99.90
18175;DHT22;9212;50.894;16.714;2022-09-09T10:04:18;24.80;99.90
18175;DHT22;9212;50.894;16.714;2022-09-09T10:06:46;25.10;99.90
18175;DHT22;9212;50.894;16.714;2022-09-09T10:09:23;25.10;99.90
18175;DHT22;9212;50.894;16.714;2022-09-09T10:11:58;25.70;99.90
18175;DHT22;9212;50.894;16.714;2022-09-09T10:14:35;25.80;99.90
18175;DHT22;9212;50.894;16.714;2022-09-09T10:17:16;25.50;99.90
18175;DHT22;9212;50.894;16.714;2022-09-09T10:19:58;26.30;99.90
18175;DHT22;9212;50.894;16.714;2022-09-09T10:22:33;26.30;99.90
18175;DHT22;9212;50.894;16.714;2022-09-09T10:25:14;26.40;99.90
18175;DHT22;9212;50.894;16.714;2022-09-09T10:27:53;26.80;99.90
18175;DHT22;9212;50.894;16.714;2022-09-09T10:30:25;26.50;99.90
18175;DHT22;9212;50.894;16.714;2022-09-09T10:33:02;26.70;99.90
18175;DHT22;9212;50.894;16.714;2022-09-09T10:35:35;26.40;99.90
18175;DHT22;9212;50.894;16.714;2022-09-09T10:38:14;26.40;99.90
18175;DHT22;9212;50.894;16.714;2022-09-09T10:40:49;26.70;99.90
18175;DHT22;9212;50.894;16.714;2022-09-09T10:43:37;26.50;99.90
18175;DHT22;9212;50.894;16.714;2022-09-09T10:46:09;26.90;99.90
18175;DHT22;9212;50.894;16.714;2022-09-09T10:48:56;27.00;99.90
18175;DHT22;9212;50.894;16.714;2022-09-09T10:51:33;27.20;99.90
18175;DHT22;9212;50.894;16.714;2022-09-09T10:54:17;27.50;99.90
18175;DHT22;9212;50.894;16.714;2022-09-09T10:56:51;27.50;99.90
18175;DHT22;9212;50.894;16.714;2022-09-09T10:59:25;27.40;99.90
18175;DHT22;9212;50.894;16.714;2022-09-09T11:01:58;27.80;99.90
18175;DHT22;9212;50.894;16.714;2022-09-09T11:04:31;27.90;99.90
18175;DHT22;9212;50.894;16.714;2022-09-09T11:07:05;27.70;99.90
18175;DHT22;9212;50.894;16.714;2022-09-09T11:09:37;27.30;99.90
18175;DHT22;9212;50.894;16.714;2022-09-09T11:12:10;27.30;99.90
18175;DHT22;9212;50.894;16.714;2022-09-09T11:14:42;26.60;99.90
18175;DHT22;9212;50.894;16.714;2022-09-09T11:17:12;27.20;99.90
18175;DHT22;9212;50.894;16.714;2022-09-09T11:19:44;27.30;99.90
18175;DHT22;9212;50.894;16.714;2022-09-09T11:22:18;27.00;99.90
18175;DHT22;9212;50.894;16.714;2022-09-09T11:24:51;27.60;99.90
18175;DHT22;9212;50.894;16.714;2022-09-09T11:27:22;28.30;99.90
18175;DHT22;9212;50.894;16.714;2022-09-09T11:30:04;28.90;99.90
18175;DHT22;9212;50.894;16.714;2022-09-09T11:35:38;29.20;99.90
18175;DHT22;9212;50.894;16.714;2022-09-09T11:38:26;29.10;99.90
18175;DHT22;9212;50.894;16.714;2022-09-09T11:41:02;28.50;99.90
18175;DHT22;9212;50.894;16.714;2022-09-09T11:43:38;27.60;99.90
18175;DHT22;9212;50.894;16.714;2022-09-09T11:46:06;26.60;99.90
18175;DHT22;9212;50.894;16.714;2022-09-09T11:48:34;26.20;99.90
18175;DHT22;9212;50.894;16.714;2022-09-09T11:51:08;27.10;99.90
18175;DHT22;9212;50.894;16.714;2022-09-09T11:53:47;27.20;99.90
18175;DHT22;9212;50.894;16.714;2022-09-09T11:56:25;27.90;99.90
18175;DHT22;9212;50.894;16.714;2022-09-09T11:58:59;27.70;99.90
18175;DHT22;9212;50.894;16.714;2022-09-09T12:01:38;28.50;99.90
18175;DHT22;9212;50.894;16.714;2022-09-09T12:04:21;28.60;99.90
18175;DHT22;9212;50.894;16.714;2022-09-09T12:06:57;29.10;99.90
18175;DHT22;9212;50.894;16.714;2022-09-09T12:12:33;29.80;99.70
18175;DHT22;9212;50.894;16.714;2022-09-09T12:15:22;29.40;99.70
18175;DHT22;9212;50.894;16.714;2022-09-09T12:17:53;29.30;96.40
18175;DHT22;9212;50.894;16.714;2022-09-09T12:20:21;29.20;99.90
18175;DHT22;9212;50.894;16.714;2022-09-09T12:23:05;28.80;99.90
18175;DHT22;9212;50.894;16.714;2022-09-09T12:25:57;28.20;99.90
18175;DHT22;9212;50.894;16.714;2022-09-09T12:28:32;28.20;99.90
18175;DHT22;9212;50.894;16.714;2022-09-09T12:31:06;28.80;99.90
18175;DHT22;9212;50.894;16.714;2022-09-09T12:33:37;29.00;99.90
18175;DHT22;9212;50.894;16.714;2022-09-09T12:36:11;29.10;99.90
18175;DHT22;9212;50.894;16.714;2022-09-09T12:38:41;28.40;99.90
18175;DHT22;9212;50.894;16.714;2022-09-09T12:41:18;28.90;99.90
18175;DHT22;9212;50.894;16.714;2022-09-09T12:43:46;28.80;99.90
18175;DHT22;9212;50.894;16.714;2022-09-09T12:46:21;28.40;99.90
18175;DHT22;9212;50.894;16.714;2022-09-09T12:48:53;27.20;99.90
18175;DHT22;9212;50.894;16.714;2022-09-09T12:51:25;27.20;99.90
18175;DHT22;9212;50.894;16.714;2022-09-09T12:53:55;27.90;99.90
18175;DHT22;9212;50.894;16.714;2022-09-09T12:56:24;28.30;99.90
18175;DHT22;9212;50.894;16.714;2022-09-09T12:58:54;27.50;99.90
18175;DHT22;9212;50.894;16.714;2022-09-09T13:01:24;26.90;99.90
18175;DHT22;9212;50.894;16.714;2022-09-09T13:03:53;26.20;99.90
18175;DHT22;9212;50.894;16.714;2022-09-09T13:06:22;26.40;99.90
18175;DHT22;9212;50.894;16.714;2022-09-09T13:08:59;26.70;99.90
18175;DHT22;9212;50.894;16.714;2022-09-09T13:11:29;27.00;99.90
18175;DHT22;9212;50.894;16.714;2022-09-09T13:13:57;27.00;99.90
18175;DHT22;9212;50.894;16.714;2022-09-09T13:16:26;26.70;99.90
18175;DHT22;9212;50.894;16.714;2022-09-09T13:18:57;26.60;99.90
18175;DHT22;9212;50.894;16.714;2022-09-09T13:21:32;27.40;99.90
18175;DHT22;9212;50.894;16.714;2022-09-09T13:24:01;28.00;99.90
18175;DHT22;9212;50.894;16.714;2022-09-09T13:26:30;27.50;99.90
18175;DHT22;9212;50.894;16.714;2022-09-09T13:29:13;27.90;99.90
18175;DHT22;9212;50.894;16.714;2022-09-09T13:31:43;27.70;99.90
18175;DHT22;9212;50.894;16.714;2022-09-09T13:34:12;27.70;99.90
18175;DHT22;9212;50.894;16.714;2022-09-09T13:36:40;27.90;99.90
18175;DHT22;9212;50.894;16.714;2022-09-09T13:39:16;26.90;99.90
18175;DHT22;9212;50.894;16.714;2022-09-09T13:41:45;26.50;99.90
18175;DHT22;9212;50.894;16.714;2022-09-09T13:44:20;26.70;99.90
18175;DHT22;9212;50.894;16.714;2022-09-09T13:47:00;27.40;99.90
18175;DHT22;9212;50.894;16.714;2022-09-09T13:49:29;27.20;99.90
18175;DHT22;9212;50.894;16.714;2022-09-09T13:52:08;27.00;99.90
18175;DHT22;9212;50.894;16.714;2022-09-09T13:54:38;26.50;99.90
18175;DHT22;9212;50.894;16.714;2022-09-09T13:57:05;26.20;99.90
18175;DHT22;9212;50.894;16.714;2022-09-09T13:59:32;26.60;99.90
18175;DHT22;9212;50.894;16.714;2022-09-09T14:02:00;26.50;99.90
18175;DHT22;9212;50.894;16.714;2022-09-09T14:04:27;26.80;99.90
18175;DHT22;9212;50.894;16.714;2022-09-09T14:06:55;26.40;99.90
18175;DHT22;9212;50.894;16.714;2022-09-09T14:09:22;26.20;99.90
18175;DHT22;9212;50.894;16.714;2022-09-09T14:11:50;26.30;99.90
18175;DHT22;9212;50.894;16.714;2022-09-09T14:14:17;26.40;99.90
18175;DHT22;9212;50.894;16.714;2022-09-09T14:16:44;26.30;99.90
18175;DHT22;9212;50.894;16.714;2022-09-09T14:19:11;25.80;99.90
18175;DHT22;9212;50.894;16.714;2022-09-09T14:21:38;25.20;99.90
18175;DHT22;9212;50.894;16.714;2022-09-09T14:24:05;25.70;99.90
18175;DHT22;9212;50.894;16.714;2022-09-09T14:26:32;25.70;99.90
18175;DHT22;9212;50.894;16.714;2022-09-09T14:29:00;26.40;99.90
18175;DHT22;9212;50.894;16.714;2022-09-09T14:31:29;26.10;99.90
18175;DHT22;9212;50.894;16.714;2022-09-09T14:33:59;25.50;99.90
18175;DHT22;9212;50.894;16.714;2022-09-09T14:36:26;25.80;99.90
18175;DHT22;9212;50.894;16.714;2022-09-09T14:38:53;25.50;99.90
18175;DHT22;9212;50.894;16.714;2022-09-09T14:41:20;25.60;99.90
18175;DHT22;9212;50.894;16.714;2022-09-09T14:43:48;25.90;99.90
18175;DHT22;9212;50.894;16.714;2022-09-09T14:46:18;26.00;99.90
18175;DHT22;9212;50.894;16.714;2022-09-09T14:48:46;25.50;99.90
18175;DHT22;9212;50.894;16.714;2022-09-09T14:51:15;25.40;99.90
18175;DHT22;9212;50.894;16.714;2022-09-09T14:53:44;25.30;99.90
18175;DHT22;9212;50.894;16.714;2022-09-09T14:56:13;25.30;99.90
18175;DHT22;9212;50.894;16.714;2022-09-09T14:58:40;25.10;99.90
18175;DHT22;9212;50.894;16.714;2022-09-09T15:01:08;25.00;99.90
18175;DHT22;9212;50.894;16.714;2022-09-09T15:03:37;24.80;99.90
18175;DHT22;9212;50.894;16.714;2022-09-09T15:06:06;24.80;99.90
18175;DHT22;9212;50.894;16.714;2022-09-09T15:08:34;24.80;99.90
18175;DHT22;9212;50.894;16.714;2022-09-09T15:11:01;24.80;99.90
18175;DHT22;9212;50.894;16.714;2022-09-09T15:13:28;24.70;99.90
18175;DHT22;9212;50.894;16.714;2022-09-09T15:15:55;24.70;99.90
18175;DHT22;9212;50.894;16.714;2022-09-09T15:18:23;24.40;99.90
18175;DHT22;9212;50.894;16.714;2022-09-09T15:20:52;24.40;99.90
18175;DHT22;9212;50.894;16.714;2022-09-09T15:23:19;24.30;99.90
18175;DHT22;9212;50.894;16.714;2022-09-09T15:25:52;24.30;99.90
18175;DHT22;9212;50.894;16.714;2022-09-09T15:28:20;24.10;99.90
18175;DHT22;9212;50.894;16.714;2022-09-09T15:30:48;24.00;99.90
18175;DHT22;9212;50.894;16.714;2022-09-09T15:33:16;23.50;99.90
18175;DHT22;9212;50.894;16.714;2022-09-09T15:35:43;23.20;99.90
18175;DHT22;9212;50.894;16.714;2022-09-09T15:38:11;22.90;99.90
18175;DHT22;9212;50.894;16.714;2022-09-09T15:40:38;23.00;99.90
18175;DHT22;9212;50.894;16.714;2022-09-09T15:43:05;22.80;99.90
18175;DHT22;9212;50.894;16.714;2022-09-09T15:45:33;22.80;99.90
18175;DHT22;9212;50.894;16.714;2022-09-09T15:48:00;22.70;99.90
18175;DHT22;9212;50.894;16.714;2022-09-09T15:50:27;22.70;99.90
18175;DHT22;9212;50.894;16.714;2022-09-09T15:52:58;22.50;99.90
18175;DHT22;9212;50.894;16.714;2022-09-09T15:55:26;22.50;99.90
18175;DHT22;9212;50.894;16.714;2022-09-09T15:57:53;22.90;99.90
18175;DHT22;9212;50.894;16.714;2022-09-09T16:00:20;22.30;99.90
18175;DHT22;9212;50.894;16.714;2022-09-09T16:05:15;22.00;99.90
18175;DHT22;9212;50.894;16.714;2022-09-09T16:07:42;21.90;99.90
18175;DHT22;9212;50.894;16.714;2022-09-09T16:10:10;21.60;99.90
18175;DHT22;9212;50.894;16.714;2022-09-09T16:12:40;21.40;99.90
18175;DHT22;9212;50.894;16.714;2022-09-09T16:15:08;21.30;99.90
18175;DHT22;9212;50.894;16.714;2022-09-09T16:17:35;21.30;99.90
18175;DHT22;9212;50.894;16.714;2022-09-09T16:20:04;21.20;99.90
18175;DHT22;9212;50.894;16.714;2022-09-09T16:22:34;21.20;99.90
18175;DHT22;9212;50.894;16.714;2022-09-09T16:25:01;21.00;99.90
18175;DHT22;9212;50.894;16.714;2022-09-09T16:27:28;20.90;99.90